College Station, TX

3:11 AM CDT on September 18, 2014 (GMT -0500)
Easterwood | Change Station
CLOSE
Current Station
Airport
Location: College Station,
Elevation: 328 ft
Nearby Weather Stations
Active Advisory: Areal Flood Watch

Elev 328 ft 30.59 °N, 96.36 °W | Updated 18 minutes ago

Rain
Rain
75 °F
Feels Like 75 °F
N
4
Wind Variable Wind from South

Today
High -- | Low -- °F
--% Chance of Precip.
Yesterday
High -- | Low -- °F
Precip. -- in
7:11 AM 7:26 PM
Waning Crescent, 29% visible
Pressure 29.86 in
Visibility 9.0 miles
Clouds Few 400 ft
Scattered Clouds 3900 ft
Mostly Cloudy 11000 ft
Dew Point 74 °F
Humidity 96%
Rainfall 0.00 in
Snow Depth Not available.
UV 0 out of 12
Pollen 7.30 out of 12
Air Quality Not available.
Flu Activity Not available.
METAR KCLL 180753Z 19003KT 9SM -RA FEW004 SCT039 BKN110 24/23 A2987 RMK AO2 SLP111 T02390233 PNO $

More Conditions Fewer Conditions

Pressure 29.86 in
Visibility 9.0 miles
Clouds Few 400 ft
Scattered Clouds 3900 ft
Mostly Cloudy 11000 ft
Dew Point 74 °F
Humidity 96%
Rainfall 0.00 in
Snow Depth Not available.
UV 0 out of 12
Pollen 7.30 out of 12
Air Quality Not available.
Flu Activity Not available.
METAR KCLL 180753Z 19003KT 9SM -RA FEW004 SCT039 BKN110 24/23 A2987 RMK AO2 SLP111 T02390233 PNO $

More Conditions Fewer Conditions

10-Day Weather Forecast

Almanac

Astronomy

Sep. 18, 2014 Rise Set
Actual Time 7:11 AM CDT 7:26 PM CDT
Civil Twilight 6:47 AM CDT 7:50 PM CDT
Nautical Twilight 6:19 AM CDT 8:19 PM CDT
Astronomical Twilight 5:50 AM CDT 8:47 PM CDT
Moon 2:20 AM CDT 4:04 PM CDT
Length of Visible Light 13h 03m
Length of Day
12h 15m
Tomorrow will be 1m 51s shorter.
Waning Crescent, 29% of the Moon is Illuminated
Today
Waning Crescent
Sep 24
New
Oct 1
First Quarter
Oct 8
Full
Oct 15
Last Quarter

Today's Extremes

State Highs State Lows

Community

WunderPhotos

Upload Photos

1,754,307 photos uploaded!

Nearby

Snow Depth

Station Depth Elevation
No new snow has been reported.

Earthquake Activity

City Distance Mag. Time & Date
No recent earthquake activity has been reported nearby.
Minimum magnitude displayed is 2.5.

Coastal Water Temperatures

Place Temperature
No Stations Reporting

Nearby Weather Stations